Faust — SLKQ — position and weather

sailwx.info

Track history (hours):
 
Tides and Currents Weather Stations Pressure Air Temp Water Temp Dewpoint Dewpoint Depression Visibility Wind Speed Wind Dir Waves Ship Positions

Faust

Last reported at 2014-Nov-28 16:32 UTC. Time now 2014-Nov-28 17:02 UTC.
Position N 40°40' W 074°04'.

Length 227.8 m; beam 32.3 m; draft 9.5 m.

Type: Cargo ship. MMSI: 266260000.

Date/timePositionNaut miles runAvg speedWind from/ knotsBaromVisibWave heightAir tempDewpointWater temp
2014-Nov-28 16:32N 40°40' W 074°04'0 0.0
2014-Nov-28 15:32N 40°40' W 074°04'0 0.0
2014-Nov-28 14:32N 40°40' W 074°04'0 0.2
2014-Nov-28 13:33N 40°40' W 074°04'8 8.5
2014-Nov-28 12:33N 40°32' W 074°01'1010.4
2014-Nov-28 11:33N 40°28' W 073°48'12 8.7
2014-Nov-28 10:13N 40°28' W 073°33'1011.3
2014-Nov-28 09:23N 40°29' W 073°21'1213.6
2014-Nov-28 08:32N 40°29' W 073°05'1414.3
2014-Nov-28 07:33N 40°30' W 072°47'1716.6
2014-Nov-28 06:33N 40°31' W 072°25'1817.5
2014-Nov-28 05:33N 40°31' W 072°02'1817.7
2014-Nov-28 04:33N 40°32' W 071°39'1817.7
2014-Nov-28 03:33N 40°32' W 071°16'  
Track history (hours):
 
Tides and Currents Weather Stations Pressure Air Temp Water Temp Dewpoint Dewpoint Depression Visibility Wind Speed Wind Dir Waves Ship Positions

Faust

Last reported at 2014-Nov-28 16:32 UTC. Time now 2014-Nov-28 17:02 UTC.
Position N 40°40' W 074°04'.

Length 227.8 m; beam 32.3 m; draft 9.5 m.

Type: Cargo ship. MMSI: 266260000.

Date/timePositionNaut miles runAvg speedWind from/ knotsBaromVisibWave heightAir tempDewpointWater temp
2014-Nov-28 16:32N 40°40' W 074°04'0 0.0
2014-Nov-28 15:32N 40°40' W 074°04'0 0.0
2014-Nov-28 14:32N 40°40' W 074°04'0 0.2
2014-Nov-28 13:33N 40°40' W 074°04'8 8.5
2014-Nov-28 12:33N 40°32' W 074°01'1010.4
2014-Nov-28 11:33N 40°28' W 073°48'12 8.7
2014-Nov-28 10:13N 40°28' W 073°33'1011.3
2014-Nov-28 09:23N 40°29' W 073°21'1213.6
2014-Nov-28 08:32N 40°29' W 073°05'1414.3
2014-Nov-28 07:33N 40°30' W 072°47'1716.6
2014-Nov-28 06:33N 40°31' W 072°25'1817.5
2014-Nov-28 05:33N 40°31' W 072°02'1817.7
2014-Nov-28 04:33N 40°32' W 071°39'1817.7
2014-Nov-28 03:33N 40°32' W 071°16'  

Dump ship's entire track history